createdAt,value
2019-04-23T00:03:08.573Z,48.12
2019-04-23T00:05:48.168Z,48.21
2019-04-23T00:08:23.245Z,48.48
2019-04-23T00:10:56.743Z,48.06
2019-04-23T00:13:24.571Z,48.52
2019-04-23T00:16:12.852Z,48.45
2019-04-23T00:21:40.534Z,48.94
2019-04-23T00:24:53.489Z,48.90
2019-04-23T00:27:16.318Z,48.85
2019-04-23T00:29:48.434Z,49.18
2019-04-23T00:32:15.628Z,49.23
2019-04-23T00:34:47.629Z,49.89
2019-04-23T00:37:25.675Z,49.65
2019-04-23T00:39:52.857Z,49.50
2019-04-23T00:42:31.497Z,49.57
2019-04-23T00:44:56.385Z,50.18
2019-04-23T00:47:45.030Z,49.86
2019-04-23T00:50:20.743Z,49.95
2019-04-23T00:52:50.216Z,50.33
2019-04-23T00:55:19.058Z,50.08
2019-04-23T00:57:43.958Z,50.01
2019-04-23T01:02:52.889Z,50.55
2019-04-23T01:05:24.842Z,50.58
2019-04-23T01:07:58.118Z,50.75
2019-04-23T01:10:45.940Z,50.47
2019-04-23T01:13:25.130Z,51.01
2019-04-23T01:15:53.674Z,50.88
2019-04-23T01:18:38.172Z,50.88
2019-04-23T01:20:53.590Z,50.63
2019-04-23T01:23:37.787Z,51.03
2019-04-23T01:26:26.378Z,51.41
2019-04-23T01:29:01.629Z,51.35
2019-04-23T01:31:34.640Z,51.42
2019-04-23T01:34:13.484Z,51.02
2019-04-23T01:36:42.933Z,51.81
2019-04-23T01:41:47.544Z,51.46
2019-04-23T01:44:34.196Z,51.54
2019-04-23T01:46:54.221Z,51.77
2019-04-23T01:49:53.946Z,51.67
2019-04-23T01:52:02.405Z,51.89
2019-04-23T01:54:38.880Z,51.99
2019-04-23T01:57:09.664Z,52.07
2019-04-23T01:59:39.021Z,51.97
2019-04-23T02:02:19.341Z,52.55
2019-04-23T02:04:55.743Z,52.32
2019-04-23T02:07:29.960Z,52.99
2019-04-23T02:10:07.209Z,53.04
2019-04-23T02:12:35.823Z,53.06
2019-04-23T02:15:03.664Z,52.94
2019-04-23T02:17:38.723Z,52.88
2019-04-23T02:20:19.270Z,53.01
2019-04-23T02:28:19.904Z,53.13
2019-04-23T02:31:15.417Z,53.14
2019-04-23T02:33:35.877Z,53.52
2019-04-23T02:36:02.480Z,53.28
2019-04-23T02:41:26.706Z,53.71
2019-04-23T02:43:37.048Z,53.83
2019-04-23T02:46:09.824Z,54.01
2019-04-23T02:48:52.476Z,53.83
2019-04-23T02:51:30.865Z,53.79
2019-04-23T02:54:04.616Z,53.91
2019-04-23T02:56:37.525Z,54.21
2019-04-23T02:59:11.001Z,54.20
2019-04-23T03:01:57.936Z,54.14
2019-04-23T03:04:16.792Z,54.18
2019-04-23T03:06:55.551Z,54.21
2019-04-23T03:09:23.704Z,54.09
2019-04-23T03:14:27.164Z,54.42
2019-04-23T03:19:38.156Z,54.98
2019-04-23T03:30:16.689Z,55.02
2019-04-23T03:32:45.676Z,54.88
2019-04-23T03:38:08.265Z,55.16
2019-04-23T03:48:06.393Z,55.62
2019-04-23T03:50:45.293Z,55.52
2019-04-23T03:53:22.627Z,55.87
2019-04-23T03:56:02.345Z,55.81
2019-04-23T03:58:27.827Z,56.15
2019-04-23T04:04:01.567Z,55.90
2019-04-23T04:08:26.225Z,56.59
2019-04-23T04:11:11.377Z,56.48
2019-04-23T04:13:42.833Z,56.59
2019-04-23T04:21:29.783Z,56.45
2019-04-23T04:24:03.283Z,56.64
2019-04-23T04:29:01.706Z,56.33
2019-04-23T04:31:42.217Z,56.76
2019-04-23T04:36:45.929Z,56.42
2019-04-23T04:39:08.164Z,56.81
2019-04-23T04:41:54.859Z,57.10
2019-04-23T04:46:55.486Z,56.86
2019-04-23T04:54:29.081Z,56.58
2019-04-23T04:57:10.269Z,56.78
2019-04-23T05:05:09.208Z,56.58
2019-04-23T05:07:27.807Z,56.30
2019-04-23T05:10:05.870Z,56.84
2019-04-23T05:12:22.961Z,57.03
2019-04-23T05:17:59.340Z,56.21
2019-04-23T05:20:26.117Z,56.21
2019-04-23T05:23:06.176Z,56.80
2019-04-23T05:25:25.563Z,56.66
2019-04-23T05:28:08.348Z,56.45
2019-04-23T05:30:44.541Z,56.51
2019-04-23T05:33:13.340Z,55.60
2019-04-23T05:38:29.100Z,55.81
2019-04-23T05:41:10.108Z,55.64
2019-04-23T05:43:26.410Z,56.68
2019-04-23T05:46:02.178Z,55.98
2019-04-23T05:48:50.886Z,55.86
2019-04-23T05:51:10.901Z,55.63
2019-04-23T05:53:40.777Z,55.31
2019-04-23T05:56:09.471Z,55.43
2019-04-23T05:58:46.863Z,55.91
2019-04-23T06:01:42.373Z,55.93
2019-04-23T06:04:09.306Z,55.88
2019-04-23T06:06:37.806Z,55.83
2019-04-23T06:11:49.190Z,54.53
2019-04-23T06:14:14.330Z,54.35
2019-04-23T06:16:41.928Z,54.09
2019-04-23T06:19:51.384Z,53.70
2019-04-23T06:29:41.581Z,53.11
2019-04-23T06:32:14.932Z,52.78
2019-04-23T06:34:47.293Z,53.23
2019-04-23T06:39:55.041Z,52.38
2019-04-23T06:42:14.587Z,52.29
2019-04-23T06:44:51.080Z,52.82
2019-04-23T06:47:23.468Z,51.42
2019-04-23T06:49:55.584Z,52.06
2019-04-23T06:52:41.505Z,51.45
2019-04-23T06:57:31.790Z,51.05
2019-04-23T07:00:29.439Z,51.17
2019-04-23T07:02:44.251Z,50.64
2019-04-23T07:05:25.339Z,50.47
2019-04-23T07:07:50.295Z,49.30
2019-04-23T07:10:26.649Z,49.58
2019-04-23T07:12:58.745Z,49.31
2019-04-23T07:15:40.842Z,48.42
2019-04-23T07:18:04.107Z,48.18
2019-04-23T07:20:40.095Z,48.80
2019-04-23T07:23:13.456Z,46.74
2019-04-23T07:25:48.466Z,47.78
2019-04-23T07:28:21.434Z,48.41
2019-04-23T07:30:55.985Z,46.09
2019-04-23T07:33:27.920Z,47.56
2019-04-23T07:35:59.950Z,45.69
2019-04-23T07:38:49.575Z,44.96
2019-04-23T07:41:30.626Z,44.77
2019-04-23T07:44:12.900Z,46.45
2019-04-23T07:46:53.082Z,44.14
2019-04-23T07:49:15.875Z,43.43
2019-04-23T07:51:54.056Z,42.69
2019-04-23T07:54:22.721Z,43.56
2019-04-23T07:57:02.964Z,41.88
2019-04-23T07:59:35.053Z,43.99
2019-04-23T08:02:12.857Z,43.65
2019-04-23T08:04:42.511Z,43.86
2019-04-23T08:07:10.969Z,42.45
2019-04-23T08:14:56.611Z,42.14
2019-04-23T08:17:22.501Z,40.65
2019-04-23T08:20:00.742Z,40.07
2019-04-23T08:22:39.361Z,41.79
2019-04-23T08:25:26.443Z,41.17
2019-04-23T08:28:13.723Z,40.06
2019-04-23T08:30:45.488Z,41.58
2019-04-23T08:33:36.157Z,40.76
2019-04-23T08:35:51.431Z,38.91
2019-04-23T08:38:35.867Z,39.48
2019-04-23T08:41:04.204Z,39.77
2019-04-23T08:43:42.610Z,38.23
2019-04-23T08:46:14.061Z,37.55
2019-04-23T08:51:38.934Z,38.88
2019-04-23T08:53:57.134Z,37.49
2019-04-23T08:56:44.470Z,36.90
2019-04-23T08:59:15.611Z,36.99
2019-04-23T09:01:57.977Z,35.28
2019-04-23T09:04:17.975Z,37.45
2019-04-23T09:06:53.343Z,35.24
2019-04-23T09:09:29.095Z,35.22
2019-04-23T09:11:54.486Z,34.51
2019-04-23T09:14:27.710Z,35.08
2019-04-23T09:17:06.059Z,33.79
2019-04-23T09:19:56.276Z,35.38
2019-04-23T09:22:28.320Z,34.06
2019-04-23T09:24:51.378Z,34.15
2019-04-23T09:27:23.283Z,33.72
2019-04-23T09:35:20.880Z,34.90
2019-04-23T09:38:07.258Z,34.32
2019-04-23T09:41:11.507Z,34.67
2019-04-23T09:43:47.334Z,34.82
2019-04-23T09:46:38.062Z,31.72
2019-04-23T09:49:14.963Z,33.47
2019-04-23T09:51:46.913Z,34.95
2019-04-23T09:54:27.046Z,34.51
2019-04-23T09:57:04.000Z,35.97
2019-04-23T09:59:37.726Z,35.30
2019-04-23T10:01:52.883Z,36.72
2019-04-23T10:04:19.449Z,35.90
2019-04-23T10:06:55.339Z,36.38
2019-04-23T10:09:14.619Z,36.46
2019-04-23T10:11:49.179Z,38.21
2019-04-23T10:14:20.957Z,36.44
2019-04-23T10:16:53.345Z,35.50
2019-04-23T10:19:26.793Z,37.79
2019-04-23T10:21:59.774Z,34.21
2019-04-23T10:24:32.852Z,33.82
2019-04-23T10:27:06.069Z,35.06
2019-04-23T10:29:39.502Z,34.73
2019-04-23T10:32:11.597Z,34.89
2019-04-23T10:34:54.219Z,33.39
2019-04-23T10:37:30.448Z,35.49
2019-04-23T10:39:58.213Z,34.83
2019-04-23T10:42:26.510Z,35.31
2019-04-23T10:45:30.423Z,33.61
2019-04-23T10:49:22.210Z,34.38
2019-04-23T10:51:41.250Z,34.65
2019-04-23T10:54:16.534Z,35.45
2019-04-23T10:56:46.601Z,35.69
2019-04-23T10:59:37.268Z,36.22
2019-04-23T11:10:03.745Z,34.46
2019-04-23T11:13:12.175Z,34.92
2019-04-23T11:18:10.179Z,35.13
2019-04-23T11:20:49.315Z,35.71
2019-04-23T11:23:28.847Z,31.72
2019-04-23T11:26:07.165Z,31.46
2019-04-23T11:31:26.395Z,30.31
2019-04-23T11:33:59.582Z,30.82
2019-04-23T11:36:47.819Z,33.61
2019-04-23T11:39:00.454Z,33.00
2019-04-23T11:41:41.823Z,31.83
2019-04-23T11:44:13.278Z,32.29
2019-04-23T11:49:29.272Z,32.82
2019-04-23T11:54:20.507Z,30.64
2019-04-23T11:57:14.823Z,30.67
2019-04-23T12:02:13.599Z,30.91
2019-04-23T12:07:57.067Z,30.61
2019-04-23T12:11:24.172Z,32.36
2019-04-23T12:13:39.564Z,33.06
2019-04-23T12:16:02.182Z,32.83
2019-04-23T12:19:01.445Z,33.84
2019-04-23T12:21:15.702Z,33.39
2019-04-23T12:24:07.449Z,34.11
2019-04-23T12:26:33.872Z,33.08
2019-04-23T12:28:50.104Z,34.05
2019-04-23T12:31:26.689Z,33.51
2019-04-23T12:33:57.132Z,33.38
2019-04-23T12:36:47.888Z,33.42
2019-04-23T12:39:30.421Z,32.98
2019-04-23T12:42:08.611Z,33.60
2019-04-23T12:44:34.962Z,32.92
2019-04-23T12:47:18.806Z,33.13
2019-04-23T12:52:12.163Z,34.86
2019-04-23T12:57:17.214Z,33.79
2019-04-23T12:59:50.104Z,33.98
2019-04-23T13:02:35.266Z,33.39
2019-04-23T13:05:01.892Z,34.72
2019-04-23T13:07:38.121Z,35.36
2019-04-23T13:10:13.191Z,35.83
2019-04-23T13:12:47.393Z,36.07
2019-04-23T13:15:18.898Z,34.89
2019-04-23T13:20:23.641Z,33.99
2019-04-23T13:22:54.863Z,32.95
2019-04-23T13:25:55.824Z,34.13
2019-04-23T13:28:30.454Z,33.68
2019-04-23T13:30:59.045Z,34.88
2019-04-23T13:33:39.108Z,36.08
2019-04-23T13:38:41.849Z,35.64
2019-04-23T13:41:23.377Z,36.13
2019-04-23T13:46:18.033Z,35.17
2019-04-23T13:48:55.438Z,34.74
2019-04-23T13:53:59.327Z,35.67
2019-04-23T14:02:04.052Z,34.92
2019-04-23T14:04:47.772Z,35.16
2019-04-23T14:07:14.670Z,37.54
2019-04-23T14:12:17.658Z,37.05
2019-04-23T14:14:56.404Z,37.00
2019-04-23T14:17:36.222Z,36.69
2019-04-23T14:19:59.862Z,37.43
2019-04-23T14:25:08.272Z,37.92
2019-04-23T14:28:04.457Z,37.28
2019-04-23T14:32:46.939Z,38.04
2019-04-23T14:38:09.815Z,39.22
2019-04-23T14:40:35.743Z,38.90
2019-04-23T14:43:07.604Z,38.94
2019-04-23T14:45:52.578Z,40.24
2019-04-23T14:48:17.579Z,38.47
2019-04-23T14:50:51.252Z,38.52
2019-04-23T14:53:24.677Z,39.56
2019-04-23T14:56:06.245Z,39.29
2019-04-23T15:01:22.009Z,40.60
2019-04-23T15:13:54.007Z,39.94
2019-04-23T15:16:39.657Z,40.58
2019-04-23T15:19:38.096Z,40.24
2019-04-23T15:22:07.830Z,39.22
2019-04-23T15:27:58.612Z,39.57
2019-04-23T15:29:32.873Z,39.18
2019-04-23T15:32:34.452Z,40.40
2019-04-23T15:34:57.937Z,40.43
2019-04-23T15:37:41.383Z,40.29
2019-04-23T15:40:02.372Z,40.08
2019-04-23T15:45:05.849Z,40.68
2019-04-23T15:47:40.504Z,41.32
2019-04-23T15:55:12.204Z,42.04
2019-04-23T16:00:18.144Z,42.24
2019-04-23T16:02:26.660Z,41.89
2019-04-23T16:04:58.367Z,42.51
2019-04-23T16:07:48.219Z,41.97
2019-04-23T16:10:28.829Z,43.12
2019-04-23T16:13:27.574Z,43.10
2019-04-23T16:15:48.154Z,43.84
2019-04-23T16:18:28.401Z,43.23
2019-04-23T16:23:33.774Z,43.46
2019-04-23T16:26:03.248Z,43.71
2019-04-23T16:28:42.259Z,44.20
2019-04-23T16:31:19.024Z,44.88
2019-04-23T16:34:14.164Z,44.54
2019-04-23T16:46:55.831Z,45.20
2019-04-23T16:49:36.482Z,44.75
2019-04-23T16:52:03.629Z,45.50
2019-04-23T16:54:38.831Z,45.59
2019-04-23T16:57:26.390Z,45.31
2019-04-23T16:59:48.556Z,45.79
2019-04-23T17:02:34.217Z,45.64
2019-04-23T17:04:46.812Z,45.82
2019-04-23T17:07:13.222Z,46.00
2019-04-23T17:10:00.648Z,45.81
2019-04-23T17:12:17.492Z,46.33
2019-04-23T17:15:02.726Z,46.42
2019-04-23T17:17:30.906Z,46.47
2019-04-23T17:20:10.756Z,46.13
2019-04-23T17:22:39.211Z,46.49
2019-04-23T17:25:17.237Z,46.46
2019-04-23T17:30:19.596Z,46.85
2019-04-23T17:33:11.769Z,46.57
2019-04-23T17:35:40.285Z,46.86
2019-04-23T17:38:20.763Z,46.31
2019-04-23T17:41:00.046Z,46.65
2019-04-23T17:43:31.518Z,47.23
2019-04-23T17:46:05.274Z,47.25
2019-04-23T17:48:43.766Z,47.19
2019-04-23T17:51:17.765Z,46.52
2019-04-23T17:53:59.857Z,46.40
2019-04-23T17:58:58.912Z,47.00
2019-04-23T18:02:10.832Z,47.61
2019-04-23T18:04:10.591Z,47.89
2019-04-23T18:06:56.282Z,48.36
2019-04-23T18:09:27.800Z,48.88
2019-04-23T18:14:32.643Z,49.11
2019-04-23T18:16:55.982Z,49.00
2019-04-23T18:19:28.203Z,49.25
2019-04-23T18:22:29.906Z,49.46
2019-04-23T18:25:08.471Z,49.81
2019-04-23T18:27:58.258Z,50.26
2019-04-23T18:30:40.675Z,50.65
2019-04-23T18:33:43.770Z,50.46
2019-04-23T18:35:29.966Z,50.62
2019-04-23T18:38:18.628Z,50.54
2019-04-23T18:41:01.249Z,51.04
2019-04-23T18:43:29.844Z,51.52
2019-04-23T18:45:55.588Z,51.77
2019-04-23T18:53:48.414Z,51.95
2019-04-23T18:56:12.743Z,52.08
2019-04-23T18:58:54.414Z,51.99
2019-04-23T19:04:38.870Z,52.70
2019-04-23T19:06:44.159Z,52.80
2019-04-23T19:10:17.162Z,52.65
2019-04-23T19:12:41.404Z,53.04
2019-04-23T19:15:17.110Z,53.25
2019-04-23T19:20:26.117Z,53.60
2019-04-23T19:22:53.092Z,53.40
2019-04-23T19:25:22.272Z,53.59
2019-04-23T19:28:01.634Z,53.68
2019-04-23T19:36:05.043Z,53.50
2019-04-23T19:38:21.330Z,54.21
2019-04-23T19:43:33.441Z,54.33
2019-04-23T19:46:09.685Z,54.55
2019-04-23T19:48:43.595Z,54.75
2019-04-23T19:51:11.416Z,55.31
2019-04-23T20:01:21.009Z,55.74
2019-04-23T20:03:54.525Z,55.98
2019-04-23T20:06:52.064Z,56.43
2019-04-23T20:09:15.809Z,56.48
2019-04-23T20:11:42.303Z,56.61
2019-04-23T20:14:14.135Z,57.18
2019-04-23T20:16:59.714Z,57.12
2019-04-23T20:19:18.721Z,57.25
2019-04-23T20:22:08.477Z,57.28
2019-04-23T20:24:34.731Z,57.34
2019-04-23T20:27:06.203Z,57.20
2019-04-23T20:32:57.935Z,57.33
2019-04-23T20:37:47.986Z,58.14
2019-04-23T20:40:02.562Z,58.32
2019-04-23T20:42:37.113Z,58.44
2019-04-23T20:45:06.001Z,58.36
2019-04-23T20:47:48.633Z,58.22
2019-04-23T20:50:03.661Z,58.27
2019-04-23T20:52:46.637Z,57.89
2019-04-23T20:55:31.210Z,58.43
2019-04-23T20:58:13.933Z,58.39
2019-04-23T21:01:26.956Z,58.53
2019-04-23T21:03:46.642Z,58.51
2019-04-23T21:09:20.201Z,58.42
2019-04-23T21:11:28.671Z,58.46
2019-04-23T21:14:03.615Z,58.45
2019-04-23T21:16:32.753Z,58.39
2019-04-23T21:18:55.092Z,58.78
2019-04-23T21:21:51.202Z,58.59
2019-04-23T21:24:27.107Z,58.82
2019-04-23T21:26:44.193Z,59.07
2019-04-23T21:29:15.639Z,59.03
2019-04-23T21:32:05.448Z,59.12
2019-04-23T21:34:24.987Z,59.22
2019-04-23T21:37:11.084Z,59.08
2019-04-23T21:40:19.191Z,58.92
2019-04-23T21:42:55.881Z,59.57
2019-04-23T21:45:26.017Z,59.37
2019-04-23T21:50:44.288Z,59.46
2019-04-23T21:52:58.217Z,59.70
2019-04-23T21:55:47.275Z,59.93
2019-04-23T21:58:18.993Z,60.05
2019-04-23T22:00:54.997Z,59.97
2019-04-23T22:03:33.156Z,59.95
2019-04-23T22:06:01.708Z,59.67
2019-04-23T22:08:27.137Z,59.63
2019-04-23T22:11:25.209Z,59.70
2019-04-23T22:13:41.569Z,60.05
2019-04-23T22:16:15.311Z,60.08
2019-04-23T22:18:55.258Z,60.11
2019-04-23T22:21:14.415Z,60.11
2019-04-23T22:23:58.232Z,60.29
2019-04-23T22:26:36.242Z,60.28
2019-04-23T22:29:12.126Z,60.70
2019-04-23T22:34:17.123Z,60.50
2019-04-23T22:41:58.231Z,60.21
2019-04-23T22:44:10.901Z,60.54
2019-04-23T22:49:32.506Z,60.89
2019-04-23T22:52:18.779Z,60.87
2019-04-23T22:54:31.859Z,61.34
2019-04-23T22:57:04.904Z,61.65
2019-04-23T22:59:44.048Z,61.51
2019-04-23T23:02:41.280Z,61.59
2019-04-23T23:07:47.725Z,61.73
2019-04-23T23:10:12.826Z,61.68
2019-04-23T23:12:56.864Z,61.63
2019-04-23T23:15:26.617Z,61.58
2019-04-23T23:18:02.101Z,61.64
2019-04-23T23:23:05.595Z,62.11
2019-04-23T23:28:12.089Z,62.48
2019-04-23T23:30:53.558Z,62.35
2019-04-23T23:33:13.324Z,62.85
2019-04-23T23:35:51.469Z,63.11
2019-04-23T23:38:24.051Z,62.83
2019-04-23T23:40:57.197Z,63.19
2019-04-23T23:43:25.837Z,63.31
2019-04-23T23:46:04.887Z,63.60
2019-04-23T23:48:27.977Z,63.43
2019-04-23T23:51:12.010Z,63.44
